sensor_id;sensor_type;location;lat;lon;timestamp;pressure;altitude;pressure_sealevel;temperature;humidity
69780;BME280;57052;55.602;38.096;2024-02-14T00:01:56;101380.16;;;-7.48;61.91
69780;BME280;57052;55.602;38.096;2024-02-14T00:04:22;101395.31;;;-7.40;61.49
69780;BME280;57052;55.602;38.096;2024-02-14T00:06:47;101390.31;;;-7.43;61.31
69780;BME280;57052;55.602;38.096;2024-02-14T00:09:13;101393.19;;;-7.46;62.01
69780;BME280;57052;55.602;38.096;2024-02-14T00:11:39;101389.84;;;-7.48;61.95
69780;BME280;57052;55.602;38.096;2024-02-14T00:14:05;101391.53;;;-7.47;61.60
69780;BME280;57052;55.602;38.096;2024-02-14T00:16:33;101395.25;;;-7.50;61.46
69780;BME280;57052;55.602;38.096;2024-02-14T00:18:59;101393.69;;;-7.52;61.17
69780;BME280;57052;55.602;38.096;2024-02-14T00:21:25;101397.28;;;-7.53;61.30
69780;BME280;57052;55.602;38.096;2024-02-14T00:23:51;101391.16;;;-7.54;61.70
69780;BME280;57052;55.602;38.096;2024-02-14T00:26:16;101393.94;;;-7.55;61.94
69780;BME280;57052;55.602;38.096;2024-02-14T00:28:42;101396.69;;;-7.57;61.92
69780;BME280;57052;55.602;38.096;2024-02-14T00:31:08;101396.09;;;-7.60;62.16
69780;BME280;57052;55.602;38.096;2024-02-14T00:33:53;101406.75;;;-7.62;61.98
69780;BME280;57052;55.602;38.096;2024-02-14T00:36:19;101409.63;;;-7.65;61.30
69780;BME280;57052;55.602;38.096;2024-02-14T00:38:45;101376.69;;;-7.80;61.27
69780;BME280;57052;55.602;38.096;2024-02-14T00:41:11;101404.84;;;-7.71;61.67
69780;BME280;57052;55.602;38.096;2024-02-14T00:43:37;101400.44;;;-7.70;61.27
69780;BME280;57052;55.602;38.096;2024-02-14T00:46:03;101401.75;;;-7.76;61.97
69780;BME280;57052;55.602;38.096;2024-02-14T00:48:28;101413.94;;;-7.75;62.19
69780;BME280;57052;55.602;38.096;2024-02-14T00:50:54;101412.28;;;-7.76;61.72
69780;BME280;57052;55.602;38.096;2024-02-14T00:53:20;101412.41;;;-7.77;62.06
69780;BME280;57052;55.602;38.096;2024-02-14T00:55:46;101393.31;;;-7.91;61.71
69780;BME280;57052;55.602;38.096;2024-02-14T00:58:12;101413.50;;;-7.80;61.95
69780;BME280;57052;55.602;38.096;2024-02-14T01:00:38;101410.16;;;-7.82;62.13
69780;BME280;57052;55.602;38.096;2024-02-14T01:03:04;101415.50;;;-7.84;61.48
69780;BME280;57052;55.602;38.096;2024-02-14T01:05:31;101414.69;;;-7.84;62.05
69780;BME280;57052;55.602;38.096;2024-02-14T01:07:57;101420.75;;;-7.84;61.96
69780;BME280;57052;55.602;38.096;2024-02-14T01:10:23;101420.06;;;-7.86;61.69
69780;BME280;57052;55.602;38.096;2024-02-14T01:12:49;101415.78;;;-7.87;61.61
69780;BME280;57052;55.602;38.096;2024-02-14T01:15:15;101414.09;;;-7.88;61.40
69780;BME280;57052;55.602;38.096;2024-02-14T01:17:40;101405.41;;;-7.99;61.80
69780;BME280;57052;55.602;38.096;2024-02-14T01:20:07;101417.94;;;-7.92;61.99
69780;BME280;57052;55.602;38.096;2024-02-14T01:22:35;101431.88;;;-7.91;61.52
69780;BME280;57052;55.602;38.096;2024-02-14T01:25:18;101425.22;;;-7.95;61.23
69780;BME280;57052;55.602;38.096;2024-02-14T01:27:44;101432.88;;;-7.92;61.51
69780;BME280;57052;55.602;38.096;2024-02-14T01:30:10;101438.34;;;-7.95;61.39
69780;BME280;57052;55.602;38.096;2024-02-14T01:32:37;101443.97;;;-8.00;61.19
69780;BME280;57052;55.602;38.096;2024-02-14T01:35:03;101432.53;;;-8.10;61.37
69780;BME280;57052;55.602;38.096;2024-02-14T01:37:32;101426.78;;;-8.15;61.16
69780;BME280;57052;55.602;38.096;2024-02-14T01:39:58;101454.72;;;-8.03;61.00
69780;BME280;57052;55.602;38.096;2024-02-14T01:42:24;101452.31;;;-8.06;61.66
69780;BME280;57052;55.602;38.096;2024-02-14T01:44:49;101456.16;;;-8.10;61.30
69780;BME280;57052;55.602;38.096;2024-02-14T01:47:17;101460.56;;;-8.10;61.87
69780;BME280;57052;55.602;38.096;2024-02-14T01:49:45;101463.34;;;-8.12;61.25
69780;BME280;57052;55.602;38.096;2024-02-14T01:52:11;101465.22;;;-8.14;61.25
69780;BME280;57052;55.602;38.096;2024-02-14T01:54:37;101458.31;;;-8.15;61.29
69780;BME280;57052;55.602;38.096;2024-02-14T01:57:03;101470.72;;;-8.17;62.19
69780;BME280;57052;55.602;38.096;2024-02-14T01:59:30;101456.63;;;-8.16;61.72
69780;BME280;57052;55.602;38.096;2024-02-14T02:01:56;101459.47;;;-8.19;61.35
69780;BME280;57052;55.602;38.096;2024-02-14T02:04:22;101458.69;;;-8.19;61.57
69780;BME280;57052;55.602;38.096;2024-02-14T02:06:48;101441.38;;;-8.33;61.75
69780;BME280;57052;55.602;38.096;2024-02-14T02:09:13;101463.94;;;-8.19;60.99
69780;BME280;57052;55.602;38.096;2024-02-14T02:11:47;101443.06;;;-8.32;61.71
69780;BME280;57052;55.602;38.096;2024-02-14T02:14:34;101461.09;;;-8.27;61.36
69780;BME280;57052;55.602;38.096;2024-02-14T02:17:19;101469.50;;;-8.24;61.50
69780;BME280;57052;55.602;38.096;2024-02-14T02:20:06;101470.47;;;-8.25;61.48
69780;BME280;57052;55.602;38.096;2024-02-14T02:22:34;101474.22;;;-8.27;61.13
69780;BME280;57052;55.602;38.096;2024-02-14T02:25:23;101464.41;;;-8.36;61.23
69780;BME280;57052;55.602;38.096;2024-02-14T02:28:09;101453.06;;;-8.48;61.66
69780;BME280;57052;55.602;38.096;2024-02-14T02:30:42;101466.81;;;-8.44;61.58
69780;BME280;57052;55.602;38.096;2024-02-14T02:33:08;101471.94;;;-8.43;60.94
69780;BME280;57052;55.602;38.096;2024-02-14T02:35:35;101492.00;;;-8.42;60.95
69780;BME280;57052;55.602;38.096;2024-02-14T02:38:21;101489.59;;;-8.45;61.36
69780;BME280;57052;55.602;38.096;2024-02-14T02:41:08;101488.13;;;-8.49;61.37
69780;BME280;57052;55.602;38.096;2024-02-14T02:43:54;101497.06;;;-8.52;60.87
69780;BME280;57052;55.602;38.096;2024-02-14T02:46:48;101492.88;;;-8.54;61.76
69780;BME280;57052;55.602;38.096;2024-02-14T02:49:34;101480.69;;;-8.66;61.20
69780;BME280;57052;55.602;38.096;2024-02-14T02:52:22;101493.97;;;-8.57;61.37
69780;BME280;57052;55.602;38.096;2024-02-14T02:55:08;101495.03;;;-8.59;61.52
69780;BME280;57052;55.602;38.096;2024-02-14T02:57:41;101496.84;;;-8.60;61.09
69780;BME280;57052;55.602;38.096;2024-02-14T03:00:10;101498.63;;;-8.60;61.23
69780;BME280;57052;55.602;38.096;2024-02-14T03:02:52;101487.59;;;-8.76;60.93
69780;BME280;57052;55.602;38.096;2024-02-14T03:05:38;101503.59;;;-8.68;60.99
69780;BME280;57052;55.602;38.096;2024-02-14T03:08:24;101505.06;;;-8.64;61.48
69780;BME280;57052;55.602;38.096;2024-02-14T03:11:10;101511.25;;;-8.65;61.49
69780;BME280;57052;55.602;38.096;2024-02-14T03:13:56;101510.41;;;-8.66;61.37
69780;BME280;57052;55.602;38.096;2024-02-14T03:16:42;101520.06;;;-8.66;61.46
69780;BME280;57052;55.602;38.096;2024-02-14T03:19:08;101512.53;;;-8.71;61.16
69780;BME280;57052;55.602;38.096;2024-02-14T03:21:34;101518.50;;;-8.69;60.79
69780;BME280;57052;55.602;38.096;2024-02-14T03:24:02;101524.81;;;-8.71;61.00
69780;BME280;57052;55.602;38.096;2024-02-14T03:26:31;101506.78;;;-8.87;61.07
69780;BME280;57052;55.602;38.096;2024-02-14T03:29:02;101524.44;;;-8.78;60.96
69780;BME280;57052;55.602;38.096;2024-02-14T03:31:28;101523.75;;;-8.80;61.12
69780;BME280;57052;55.602;38.096;2024-02-14T03:33:53;101525.66;;;-8.82;61.41
69780;BME280;57052;55.602;38.096;2024-02-14T03:36:19;101529.06;;;-8.81;60.72
69780;BME280;57052;55.602;38.096;2024-02-14T03:38:45;101529.34;;;-8.84;60.71
69780;BME280;57052;55.602;38.096;2024-02-14T03:41:12;101529.44;;;-8.86;61.21
69780;BME280;57052;55.602;38.096;2024-02-14T03:43:41;101534.88;;;-8.89;60.78
69780;BME280;57052;55.602;38.096;2024-02-14T03:46:07;101532.41;;;-8.90;61.35
69780;BME280;57052;55.602;38.096;2024-02-14T03:48:34;101471.78;;;-9.33;61.02
69780;BME280;57052;55.602;38.096;2024-02-14T03:51:00;101511.81;;;-9.07;61.06
69780;BME280;57052;55.602;38.096;2024-02-14T03:53:26;101526.38;;;-9.03;61.49
69780;BME280;57052;55.602;38.096;2024-02-14T03:55:51;101550.25;;;-8.95;61.27
69780;BME280;57052;55.602;38.096;2024-02-14T03:58:19;101552.16;;;-8.97;60.92
69780;BME280;57052;55.602;38.096;2024-02-14T04:00:51;101553.22;;;-9.00;60.96
69780;BME280;57052;55.602;38.096;2024-02-14T04:03:18;101541.38;;;-9.05;61.68
69780;BME280;57052;55.602;38.096;2024-02-14T04:05:44;101554.16;;;-9.01;60.94
69780;BME280;57052;55.602;38.096;2024-02-14T04:08:13;101554.28;;;-9.02;61.18
69780;BME280;57052;55.602;38.096;2024-02-14T04:10:39;101557.25;;;-9.07;60.91
69780;BME280;57052;55.602;38.096;2024-02-14T04:13:05;101558.06;;;-9.06;60.90
69780;BME280;57052;55.602;38.096;2024-02-14T04:15:32;101554.34;;;-9.15;61.19
69780;BME280;57052;55.602;38.096;2024-02-14T04:18:10;101565.41;;;-9.12;61.00
69780;BME280;57052;55.602;38.096;2024-02-14T04:20:36;101572.56;;;-9.14;61.29
69780;BME280;57052;55.602;38.096;2024-02-14T04:23:02;101563.13;;;-9.16;61.03
69780;BME280;57052;55.602;38.096;2024-02-14T04:25:29;101573.75;;;-9.18;61.37
69780;BME280;57052;55.602;38.096;2024-02-14T04:27:55;101572.28;;;-9.22;60.87
69780;BME280;57052;55.602;38.096;2024-02-14T04:30:21;101571.47;;;-9.22;61.22
69780;BME280;57052;55.602;38.096;2024-02-14T04:33:06;101584.66;;;-9.24;61.06
69780;BME280;57052;55.602;38.096;2024-02-14T04:35:33;101588.25;;;-9.25;61.30
69780;BME280;57052;55.602;38.096;2024-02-14T04:37:59;101583.09;;;-9.26;61.08
69780;BME280;57052;55.602;38.096;2024-02-14T04:40:25;101585.22;;;-9.31;61.30
69780;BME280;57052;55.602;38.096;2024-02-14T04:42:50;101583.31;;;-9.29;60.80
69780;BME280;57052;55.602;38.096;2024-02-14T04:45:16;101592.22;;;-9.32;60.74
69780;BME280;57052;55.602;38.096;2024-02-14T04:48:02;101595.09;;;-9.35;61.04
69780;BME280;57052;55.602;38.096;2024-02-14T04:50:29;101589.03;;;-9.48;61.09
69780;BME280;57052;55.602;38.096;2024-02-14T04:52:57;101602.44;;;-9.40;61.08
69780;BME280;57052;55.602;38.096;2024-02-14T04:55:22;101590.72;;;-9.47;61.15
69780;BME280;57052;55.602;38.096;2024-02-14T04:57:48;101603.38;;;-9.41;60.93
69780;BME280;57052;55.602;38.096;2024-02-14T05:00:14;101600.97;;;-9.44;61.05
69780;BME280;57052;55.602;38.096;2024-02-14T05:02:40;101576.28;;;-9.65;60.82
69780;BME280;57052;55.602;38.096;2024-02-14T05:05:06;101611.69;;;-9.47;61.05
69780;BME280;57052;55.602;38.096;2024-02-14T05:07:39;101602.34;;;-9.51;60.90
69780;BME280;57052;55.602;38.096;2024-02-14T05:10:05;101608.44;;;-9.50;60.83
69780;BME280;57052;55.602;38.096;2024-02-14T05:12:32;101609.28;;;-9.50;61.00
69780;BME280;57052;55.602;38.096;2024-02-14T05:14:59;101623.09;;;-9.48;61.15
69780;BME280;57052;55.602;38.096;2024-02-14T05:17:24;101622.25;;;-9.48;61.00
69780;BME280;57052;55.602;38.096;2024-02-14T05:19:50;101635.38;;;-9.48;61.16
69780;BME280;57052;55.602;38.096;2024-02-14T05:22:16;101630.13;;;-9.48;61.05
69780;BME280;57052;55.602;38.096;2024-02-14T05:24:42;101629.28;;;-9.49;60.61
69780;BME280;57052;55.602;38.096;2024-02-14T05:27:07;101632.75;;;-9.48;60.91
69780;BME280;57052;55.602;38.096;2024-02-14T05:29:33;101633.47;;;-9.46;60.57
69780;BME280;57052;55.602;38.096;2024-02-14T05:31:59;101623.09;;;-9.48;60.89
69780;BME280;57052;55.602;38.096;2024-02-14T05:34:25;101626.66;;;-9.49;60.96
69780;BME280;57052;55.602;38.096;2024-02-14T05:36:50;101628.13;;;-9.45;60.67
69780;BME280;57052;55.602;38.096;2024-02-14T05:39:17;101633.13;;;-9.42;60.82
69780;BME280;57052;55.602;38.096;2024-02-14T05:41:44;101629.59;;;-9.41;60.78
69780;BME280;57052;55.602;38.096;2024-02-14T05:44:10;101627.41;;;-9.47;61.19
69780;BME280;57052;55.602;38.096;2024-02-14T05:46:36;101630.75;;;-9.45;61.27
69780;BME280;57052;55.602;38.096;2024-02-14T05:49:01;101640.72;;;-9.37;60.90
69780;BME280;57052;55.602;38.096;2024-02-14T05:51:27;101641.63;;;-9.38;60.98
69780;BME280;57052;55.602;38.096;2024-02-14T05:53:53;101638.91;;;-9.37;60.79
69780;BME280;57052;55.602;38.096;2024-02-14T05:56:19;101633.56;;;-9.35;60.63
69780;BME280;57052;55.602;38.096;2024-02-14T05:58:44;101643.59;;;-9.29;60.86
69780;BME280;57052;55.602;38.096;2024-02-14T06:01:10;101644.44;;;-9.29;60.64
69780;BME280;57052;55.602;38.096;2024-02-14T06:03:36;101646.00;;;-9.26;60.67
69780;BME280;57052;55.602;38.096;2024-02-14T06:06:02;101646.84;;;-9.26;60.51
69780;BME280;57052;55.602;38.096;2024-02-14T06:08:28;101651.03;;;-9.23;60.70
69780;BME280;57052;55.602;38.096;2024-02-14T06:10:53;101650.94;;;-9.22;60.70
69780;BME280;57052;55.602;38.096;2024-02-14T06:13:19;101643.31;;;-9.25;60.53
69780;BME280;57052;55.602;38.096;2024-02-14T06:16:04;101653.13;;;-9.16;60.77
69780;BME280;57052;55.602;38.096;2024-02-14T06:18:30;101666.75;;;-9.10;60.49
69780;BME280;57052;55.602;38.096;2024-02-14T06:20:56;101649.56;;;-9.15;60.73
69780;BME280;57052;55.602;38.096;2024-02-14T06:23:21;101666.53;;;-9.07;60.70
69780;BME280;57052;55.602;38.096;2024-02-14T06:25:47;101656.97;;;-9.08;60.40
69780;BME280;57052;55.602;38.096;2024-02-14T06:28:14;101666.09;;;-9.01;60.46
69780;BME280;57052;55.602;38.096;2024-02-14T06:30:40;101661.47;;;-8.98;60.53
69780;BME280;57052;55.602;38.096;2024-02-14T06:33:06;101655.38;;;-8.98;60.29
69780;BME280;57052;55.602;38.096;2024-02-14T06:35:32;101651.19;;;-9.01;60.72
69780;BME280;57052;55.602;38.096;2024-02-14T06:37:58;101667.88;;;-8.89;60.89
69780;BME280;57052;55.602;38.096;2024-02-14T06:40:23;101666.56;;;-8.84;60.52
69780;BME280;57052;55.602;38.096;2024-02-14T06:42:50;101662.66;;;-8.78;60.76
69780;BME280;57052;55.602;38.096;2024-02-14T06:45:17;101652.88;;;-8.76;60.64
69780;BME280;57052;55.602;38.096;2024-02-14T06:48:03;101666.09;;;-8.65;60.69
69780;BME280;57052;55.602;38.096;2024-02-14T06:50:29;101665.97;;;-8.64;60.92
69780;BME280;57052;55.602;38.096;2024-02-14T06:52:55;101663.00;;;-8.59;60.19
69780;BME280;57052;55.602;38.096;2024-02-14T06:55:25;101667.09;;;-8.55;60.46
69780;BME280;57052;55.602;38.096;2024-02-14T06:57:52;101663.41;;;-8.53;61.18
69780;BME280;57052;55.602;38.096;2024-02-14T07:00:18;101663.56;;;-8.43;60.54
69780;BME280;57052;55.602;38.096;2024-02-14T07:02:44;101656.88;;;-8.47;60.41
69780;BME280;57052;55.602;38.096;2024-02-14T07:05:12;101661.00;;;-8.32;60.29
69780;BME280;57052;55.602;38.096;2024-02-14T07:07:42;101664.22;;;-8.28;59.95
69780;BME280;57052;55.602;38.096;2024-02-14T07:10:08;101657.63;;;-8.23;60.59
69780;BME280;57052;55.602;38.096;2024-02-14T07:12:34;101664.00;;;-8.14;60.67
69780;BME280;57052;55.602;38.096;2024-02-14T07:15:03;101666.28;;;-8.10;60.54
69780;BME280;57052;55.602;38.096;2024-02-14T07:17:32;101667.63;;;-8.04;60.71
69780;BME280;57052;55.602;38.096;2024-02-14T07:19:58;101655.56;;;-8.07;60.59
69780;BME280;57052;55.602;38.096;2024-02-14T07:22:24;101672.88;;;-7.93;60.59
69780;BME280;57052;55.602;38.096;2024-02-14T07:24:50;101676.72;;;-7.86;60.57
69780;BME280;57052;55.602;38.096;2024-02-14T07:27:15;101666.69;;;-7.81;60.38
69780;BME280;57052;55.602;38.096;2024-02-14T07:29:44;101672.34;;;-7.74;60.08
69780;BME280;57052;55.602;38.096;2024-02-14T07:32:10;101653.47;;;-7.79;59.97
69780;BME280;57052;55.602;38.096;2024-02-14T07:34:38;101671.41;;;-7.62;60.20
69780;BME280;57052;55.602;38.096;2024-02-14T07:37:04;101666.63;;;-7.57;59.45
69780;BME280;57052;55.602;38.096;2024-02-14T07:39:30;101666.41;;;-7.54;60.40
69780;BME280;57052;55.602;38.096;2024-02-14T07:41:56;101662.56;;;-7.50;60.13
69780;BME280;57052;55.602;38.096;2024-02-14T07:44:23;101663.03;;;-7.45;60.10
69780;BME280;57052;55.602;38.096;2024-02-14T07:46:49;101661.59;;;-7.38;59.45
69780;BME280;57052;55.602;38.096;2024-02-14T07:49:15;101661.25;;;-7.34;60.56
69780;BME280;57052;55.602;38.096;2024-02-14T07:51:40;101644.88;;;-7.37;60.29
69780;BME280;57052;55.602;38.096;2024-02-14T07:54:06;101651.19;;;-7.29;59.88
69780;BME280;57052;55.602;38.096;2024-02-14T07:56:32;101654.69;;;-7.28;59.79
69780;BME280;57052;55.602;38.096;2024-02-14T07:58:58;101653.97;;;-7.19;60.35
69780;BME280;57052;55.602;38.096;2024-02-14T08:01:25;101662.44;;;-7.16;59.71
69780;BME280;57052;55.602;38.096;2024-02-14T08:03:51;101669.97;;;-7.11;59.93
69780;BME280;57052;55.602;38.096;2024-02-14T08:06:17;101663.28;;;-7.04;59.49
69780;BME280;57052;55.602;38.096;2024-02-14T08:08:43;101671.38;;;-6.96;59.63
69780;BME280;57052;55.602;38.096;2024-02-14T08:11:11;101663.16;;;-6.91;59.21
69780;BME280;57052;55.602;38.096;2024-02-14T08:13:37;101663.59;;;-6.86;59.38
69780;BME280;57052;55.602;38.096;2024-02-14T08:16:06;101671.94;;;-6.81;58.94
69780;BME280;57052;55.602;38.096;2024-02-14T08:18:32;101662.78;;;-6.87;59.15
69780;BME280;57052;55.602;38.096;2024-02-14T08:20:58;101676.59;;;-6.74;59.28
69780;BME280;57052;55.602;38.096;2024-02-14T08:23:24;101677.91;;;-6.68;59.59
69780;BME280;57052;55.602;38.096;2024-02-14T08:25:50;101683.66;;;-6.63;59.65
69780;BME280;57052;55.602;38.096;2024-02-14T08:28:15;101680.63;;;-6.59;58.88
69780;BME280;57052;55.602;38.096;2024-02-14T08:30:44;101684.00;;;-6.57;58.89
69780;BME280;57052;55.602;38.096;2024-02-14T08:33:09;101687.09;;;-6.52;59.05
69780;BME280;57052;55.602;38.096;2024-02-14T08:35:36;101675.03;;;-6.54;59.44
69780;BME280;57052;55.602;38.096;2024-02-14T08:38:02;101698.44;;;-6.40;58.86
69780;BME280;57052;55.602;38.096;2024-02-14T08:40:28;101700.59;;;-6.34;59.46
69780;BME280;57052;55.602;38.096;2024-02-14T08:42:54;101691.47;;;-6.30;59.48
69780;BME280;57052;55.602;38.096;2024-02-14T08:45:20;101683.56;;;-6.30;59.28
69780;BME280;57052;55.602;38.096;2024-02-14T08:47:46;101700.97;;;-6.18;58.92
69780;BME280;57052;55.602;38.096;2024-02-14T08:50:12;101665.81;;;-6.28;58.90
69780;BME280;57052;55.602;38.096;2024-02-14T08:52:38;101702.50;;;-6.04;59.00
69780;BME280;57052;55.602;38.096;2024-02-14T08:55:04;101681.91;;;-6.10;58.45
69780;BME280;57052;55.602;38.096;2024-02-14T08:57:32;101700.88;;;-5.96;58.82
69780;BME280;57052;55.602;38.096;2024-02-14T08:59:58;101701.94;;;-5.87;58.30
69780;BME280;57052;55.602;38.096;2024-02-14T09:02:24;101697.06;;;-5.82;58.44
69780;BME280;57052;55.602;38.096;2024-02-14T09:04:50;101695.72;;;-5.76;58.67
69780;BME280;57052;55.602;38.096;2024-02-14T09:07:16;101704.91;;;-5.71;58.79
69780;BME280;57052;55.602;38.096;2024-02-14T09:09:42;101703.56;;;-5.65;58.63
69780;BME280;57052;55.602;38.096;2024-02-14T09:12:08;101701.75;;;-5.65;58.66
69780;BME280;57052;55.602;38.096;2024-02-14T09:14:34;101707.00;;;-5.54;58.10
69780;BME280;57052;55.602;38.096;2024-02-14T09:17:01;101712.72;;;-5.49;58.41
69780;BME280;57052;55.602;38.096;2024-02-14T09:19:27;101703.56;;;-5.45;58.42
69780;BME280;57052;55.602;38.096;2024-02-14T09:21:53;101712.63;;;-5.38;58.28
69780;BME280;57052;55.602;38.096;2024-02-14T09:24:19;101715.44;;;-5.30;58.16
69780;BME280;57052;55.602;38.096;2024-02-14T09:26:44;101703.66;;;-5.26;57.87
69780;BME280;57052;55.602;38.096;2024-02-14T09:29:10;101691.00;;;-5.32;58.35
69780;BME280;57052;55.602;38.096;2024-02-14T09:31:40;101704.66;;;-5.17;57.98
69780;BME280;57052;55.602;38.096;2024-02-14T09:34:06;101699.00;;;-5.12;57.96
69780;BME280;57052;55.602;38.096;2024-02-14T09:36:33;101705.53;;;-5.07;58.24
69780;BME280;57052;55.602;38.096;2024-02-14T09:38:59;101706.81;;;-5.01;57.95
69780;BME280;57052;55.602;38.096;2024-02-14T09:41:31;101703.78;;;-4.97;57.85
69780;BME280;57052;55.602;38.096;2024-02-14T09:44:00;101705.59;;;-4.88;57.78
69780;BME280;57052;55.602;38.096;2024-02-14T09:46:26;101714.66;;;-4.81;57.70
69780;BME280;57052;55.602;38.096;2024-02-14T09:48:52;101694.53;;;-4.82;57.46
69780;BME280;57052;55.602;38.096;2024-02-14T09:51:19;101702.88;;;-4.77;57.18
69780;BME280;57052;55.602;38.096;2024-02-14T09:53:45;101690.78;;;-4.79;57.28
69780;BME280;57052;55.602;38.096;2024-02-14T09:56:12;101661.09;;;-5.02;57.31
69780;BME280;57052;55.602;38.096;2024-02-14T09:58:40;101695.94;;;-4.68;57.29
69780;BME280;57052;55.602;38.096;2024-02-14T10:01:06;101698.72;;;-4.70;57.08
69780;BME280;57052;55.602;38.096;2024-02-14T10:03:33;101714.59;;;-4.50;57.54
69780;BME280;57052;55.602;38.096;2024-02-14T10:05:59;101714.22;;;-4.46;57.35
69780;BME280;57052;55.602;38.096;2024-02-14T10:08:25;101715.34;;;-4.39;57.37
69780;BME280;57052;55.602;38.096;2024-02-14T10:10:52;101682.91;;;-4.50;57.31
69780;BME280;57052;55.602;38.096;2024-02-14T10:13:19;101705.72;;;-4.30;57.35
69780;BME280;57052;55.602;38.096;2024-02-14T10:15:45;101711.19;;;-4.22;57.36
69780;BME280;57052;55.602;38.096;2024-02-14T10:18:11;101713.28;;;-4.16;57.06
69780;BME280;57052;55.602;38.096;2024-02-14T10:20:37;101709.78;;;-4.17;57.15
69780;BME280;57052;55.602;38.096;2024-02-14T10:23:10;101702.00;;;-4.09;56.93
69780;BME280;57052;55.602;38.096;2024-02-14T10:25:36;101711.31;;;-4.05;57.21
69780;BME280;57052;55.602;38.096;2024-02-14T10:28:05;101715.34;;;-4.01;57.01
69780;BME280;57052;55.602;38.096;2024-02-14T10:30:37;101707.03;;;-3.96;56.66
69780;BME280;57052;55.602;38.096;2024-02-14T10:33:04;101704.38;;;-3.96;57.01
69780;BME280;57052;55.602;38.096;2024-02-14T10:35:30;101705.47;;;-3.89;57.09
69780;BME280;57052;55.602;38.096;2024-02-14T10:38:00;101705.34;;;-3.88;56.75
69780;BME280;57052;55.602;38.096;2024-02-14T10:40:28;101659.00;;;-4.11;56.44
69780;BME280;57052;55.602;38.096;2024-02-14T10:42:55;101694.19;;;-3.81;56.87
69780;BME280;57052;55.602;38.096;2024-02-14T10:45:23;101698.22;;;-3.77;57.04
69780;BME280;57052;55.602;38.096;2024-02-14T10:48:11;101701.88;;;-3.78;55.72
69780;BME280;57052;55.602;38.096;2024-02-14T10:50:40;101698.09;;;-3.76;56.66
69780;BME280;57052;55.602;38.096;2024-02-14T10:53:14;101700.16;;;-3.70;56.28
69780;BME280;57052;55.602;38.096;2024-02-14T10:55:47;101696.41;;;-3.67;56.40
69780;BME280;57052;55.602;38.096;2024-02-14T10:58:16;101701.56;;;-3.66;56.38
69780;BME280;57052;55.602;38.096;2024-02-14T11:00:43;101694.34;;;-3.73;56.65
69780;BME280;57052;55.602;38.096;2024-02-14T11:03:09;101700.44;;;-3.63;56.65
69780;BME280;57052;55.602;38.096;2024-02-14T11:05:44;101694.44;;;-3.65;55.99
69780;BME280;57052;55.602;38.096;2024-02-14T11:08:15;101695.16;;;-3.63;56.27
69780;BME280;57052;55.602;38.096;2024-02-14T11:10:53;101678.47;;;-3.73;56.01
69780;BME280;57052;55.602;38.096;2024-02-14T11:13:20;101694.84;;;-3.60;56.22
69780;BME280;57052;55.602;38.096;2024-02-14T11:15:47;101671.34;;;-3.73;56.52
69780;BME280;57052;55.602;38.096;2024-02-14T11:18:25;101701.53;;;-3.56;56.08
69780;BME280;57052;55.602;38.096;2024-02-14T11:20:50;101689.72;;;-3.62;56.40
69780;BME280;57052;55.602;38.096;2024-02-14T11:23:21;101706.56;;;-3.53;56.32
69780;BME280;57052;55.602;38.096;2024-02-14T11:25:47;101691.25;;;-3.59;56.52
69780;BME280;57052;55.602;38.096;2024-02-14T11:28:18;101703.75;;;-3.52;56.50
69780;BME280;57052;55.602;38.096;2024-02-14T11:30:49;101701.78;;;-3.50;57.09
69780;BME280;57052;55.602;38.096;2024-02-14T11:33:23;101694.84;;;-3.51;56.35
69780;BME280;57052;55.602;38.096;2024-02-14T11:35:53;101701.78;;;-3.50;56.42
69780;BME280;57052;55.602;38.096;2024-02-14T11:38:20;101694.69;;;-3.49;56.75
69780;BME280;57052;55.602;38.096;2024-02-14T11:40:46;101692.22;;;-3.51;56.71
69780;BME280;57052;55.602;38.096;2024-02-14T11:43:14;101695.53;;;-3.49;56.47
69780;BME280;57052;55.602;38.096;2024-02-14T11:45:42;101694.00;;;-3.51;56.78
69780;BME280;57052;55.602;38.096;2024-02-14T11:48:11;101681.91;;;-3.54;56.84
69780;BME280;57052;55.602;38.096;2024-02-14T11:50:41;101704.16;;;-3.47;56.61
69780;BME280;57052;55.602;38.096;2024-02-14T11:53:12;101644.47;;;-3.78;56.81
69780;BME280;57052;55.602;38.096;2024-02-14T11:55:42;101696.75;;;-3.43;56.64
69780;BME280;57052;55.602;38.096;2024-02-14T11:58:11;101700.94;;;-3.41;56.67
69780;BME280;57052;55.602;38.096;2024-02-14T12:00:46;101695.63;;;-3.41;56.67
69780;BME280;57052;55.602;38.096;2024-02-14T12:03:15;101690.94;;;-3.47;56.78
69780;BME280;57052;55.602;38.096;2024-02-14T12:05:42;101687.44;;;-3.47;56.61
69780;BME280;57052;55.602;38.096;2024-02-14T12:10:58;101699.81;;;-3.38;56.75
69780;BME280;57052;55.602;38.096;2024-02-14T12:13:24;101707.63;;;-3.37;56.40
69780;BME280;57052;55.602;38.096;2024-02-14T12:15:51;101708.59;;;-3.38;56.40
69780;BME280;57052;55.602;38.096;2024-02-14T12:18:18;101704.28;;;-3.39;56.94
69780;BME280;57052;55.602;38.096;2024-02-14T12:20:45;101696.47;;;-3.40;56.65
69780;BME280;57052;55.602;38.096;2024-02-14T12:23:16;101708.06;;;-3.41;56.39
69780;BME280;57052;55.602;38.096;2024-02-14T12:25:46;101699.28;;;-3.42;56.36
69780;BME280;57052;55.602;38.096;2024-02-14T12:28:16;101685.38;;;-3.53;56.56
69780;BME280;57052;55.602;38.096;2024-02-14T12:30:47;101707.06;;;-3.40;56.73
69780;BME280;57052;55.602;38.096;2024-02-14T12:33:15;101650.88;;;-3.71;56.59
69780;BME280;57052;55.602;38.096;2024-02-14T12:35:45;101700.13;;;-3.41;56.54
69780;BME280;57052;55.602;38.096;2024-02-14T12:38:13;101704.69;;;-3.43;56.68
69780;BME280;57052;55.602;38.096;2024-02-14T12:40:40;101703.72;;;-3.42;56.79
69780;BME280;57052;55.602;38.096;2024-02-14T12:43:10;101694.13;;;-3.53;56.48
69780;BME280;57052;55.602;38.096;2024-02-14T12:45:37;101704.00;;;-3.45;57.03
69780;BME280;57052;55.602;38.096;2024-02-14T12:48:04;101709.47;;;-3.47;56.59
69780;BME280;57052;55.602;38.096;2024-02-14T12:50:31;101705.28;;;-3.49;57.03